Main page
METAR-TAF:

METAR-TAF

Airports :

Pécs, Hungary

Pécs-Pogány International Airport

latitude: 46-06N, longitude: 018-14E, elevation: 201 m

Current weather observation

The report was made 38 minutes ago, at 14:45 UTC
Wind 7 kt from the North/Northeast
Temperature 4°C
Humidity 70%
Pressure 1027 hPa
Visibility 10 km or more
Broken clouds at a height of 2300 ft

METAR: LHPP 231445Z 02007KT 9999 BKN023 04/M01 Q1027

Time: 16:23 (15:23 UTC)

Forecast

The report was made 1 hour and 8 minutes ago, at 14:15 UTC
Forecast valid from 23 at 15 UTC to 23 at 24 UTC
Wind 7 kt from the North
Visibility 10 km or more
Few clouds at a height of 2000 ft
Scattered clouds at a height of 5000 ft
Becoming
from 23 at 16 UTC to 23 at 19 UTC
Wind 2 kt from variable directions
Visibility: 3000 m
Broken clouds at a height of 1000 ft
mist

TAF: LHPP 231415Z 2315/2324 01007KT 9999 FEW020 SCT050 BECMG 2316/2319 VRB02KT 3000 BR BKN010

Weather observations and forecasts of more than 4000 airports (METAR and TAF reports).

The available stations are represented by yellow and red dots on the map.

Hover mouse over dot to see the name of the station.

Then click to see weather observations and forecasts.

To change the map : click on the green buttons with a black cross to zoom in, on the green button with a dash to zoom out, or on the green arrows for adjacent maps.


METAR-TAF: